Time;durP1;ratioP1;P1;durP2;ratioP2;P2;SDS_P1;SDS_P2;PMS_P1;PMS_P2;Temp;Humidity;BMP_temperature;BMP_pressure;BME280_temperature;BME280_humidity;BME280_pressure;Samples;Min_cycle;Max_cycle;Signal;HPM_P1;HPM_P2
2022/03/07 00:01:04;;;;;;;1.20;1.20;;;;;;;;;;6102603;23;20180;-82
2022/03/07 00:03:34;;;;;;;2.10;1.90;;;;;;;;;;6102617;23;20196;-83
2022/03/07 00:06:04;;;;;;;1.83;1.73;;;;;;;;;;6127726;23;20223;-82
2022/03/07 00:08:33;;;;;;;0.80;0.80;;;;;;;;;;6101838;23;20186;-82
2022/03/07 00:11:07;;;;;;;0.90;0.90;;;;;;;;;;6101608;23;20177;-83
2022/03/07 00:13:36;;;;;;;0.90;0.90;;;;;;;;;;6101593;23;20187;-83
2022/03/07 00:16:04;;;;;;;0.90;0.90;;;;;;;;;;6102384;23;20204;-82
2022/03/07 00:18:34;;;;;;;1.90;1.00;;;;;;;;;;6127173;23;20176;-82
2022/03/07 00:21:03;;;;;;;0.90;0.90;;;;;;;;;;6101833;23;20200;-82
2022/03/07 00:23:31;;;;;;;1.00;1.00;;;;;;;;;;6101744;23;20183;-83
2022/03/07 00:26:00;;;;;;;1.00;1.00;;;;;;;;;;6127494;23;20173;-82
2022/03/07 00:28:28;;;;;;;0.80;0.80;;;;;;;;;;6128003;23;20180;-83
2022/03/07 00:30:57;;;;;;;1.30;1.20;;;;;;;;;;6128002;23;20180;-82
2022/03/07 00:33:25;;;;;;;0.80;0.80;;;;;;;;;;6101658;23;20202;-83
2022/03/07 00:35:55;;;;;;;0.90;0.90;;;;;;;;;;6101635;23;20223;-84
2022/03/07 00:38:24;;;;;;;0.80;0.80;;;;;;;;;;6127460;23;20173;-82
2022/03/07 00:40:52;;;;;;;0.90;0.90;;;;;;;;;;6127491;23;20164;-82
2022/03/07 00:43:22;;;;;;;1.03;1.03;;;;;;;;;;6127532;23;20231;-82
2022/03/07 00:45:51;;;;;;;0.90;0.90;;;;;;;;;;6127365;23;20219;-82
2022/03/07 00:48:20;;;;;;;0.77;0.77;;;;;;;;;;6125829;23;20184;-83
2022/03/07 00:50:49;;;;;;;1.20;1.13;;;;;;;;;;6101545;23;20216;-83
2022/03/07 00:53:20;;;;;;;0.90;0.90;;;;;;;;;;6101963;23;20180;-83
2022/03/07 00:55:49;;;;;;;0.80;0.80;;;;;;;;;;6127195;23;20180;-82
2022/03/07 00:58:17;;;;;;;0.97;0.97;;;;;;;;;;6127583;23;20176;-82
2022/03/07 01:00:46;;;;;;;0.93;0.93;;;;;;;;;;6125882;23;20235;-83
2022/03/07 01:03:16;;;;;;;0.80;0.80;;;;;;;;;;6127331;23;20192;-82
2022/03/07 01:05:45;;;;;;;0.80;0.80;;;;;;;;;;6101893;23;20172;-83
2022/03/07 01:08:16;;;;;;;1.20;1.20;;;;;;;;;;6127340;23;20172;-82
2022/03/07 01:10:47;;;;;;;0.80;0.80;;;;;;;;;;6101556;23;20200;-83
2022/03/07 01:13:18;;;;;;;1.10;1.10;;;;;;;;;;6101836;23;20172;-82
2022/03/07 01:15:46;;;;;;;0.80;0.80;;;;;;;;;;6101596;23;20267;-83
2022/03/07 01:18:15;;;;;;;0.80;0.80;;;;;;;;;;6101277;23;20177;-82
2022/03/07 01:20:43;;;;;;;2.50;1.47;;;;;;;;;;6101451;23;20172;-82
2022/03/07 01:23:12;;;;;;;1.10;1.10;;;;;;;;;;6101460;23;20176;-82
2022/03/07 01:25:40;;;;;;;0.90;0.90;;;;;;;;;;6127318;23;20234;-82
2022/03/07 01:28:10;;;;;;;0.93;0.93;;;;;;;;;;6127087;23;20306;-82
2022/03/07 01:30:39;;;;;;;0.80;0.80;;;;;;;;;;6126804;23;20184;-82
2022/03/07 01:33:07;;;;;;;0.90;0.90;;;;;;;;;;6127404;23;20187;-82
2022/03/07 01:35:36;;;;;;;1.10;1.10;;;;;;;;;;6100931;23;20187;-82
2022/03/07 01:38:04;;;;;;;1.00;1.00;;;;;;;;;;6101075;23;20183;-82
2022/03/07 01:40:33;;;;;;;1.07;1.07;;;;;;;;;;6101490;23;20177;-82
2022/03/07 01:43:02;;;;;;;0.90;0.90;;;;;;;;;;6125274;23;20208;-82
2022/03/07 01:45:31;;;;;;;2.00;1.90;;;;;;;;;;6101409;23;20180;-82
2022/03/07 01:48:01;;;;;;;0.90;0.90;;;;;;;;;;6127026;23;20183;-82
2022/03/07 01:50:29;;;;;;;0.80;0.80;;;;;;;;;;6100674;23;20220;-82
2022/03/07 01:52:58;;;;;;;1.43;1.13;;;;;;;;;;6100663;23;20177;-82
2022/03/07 01:55:29;;;;;;;0.90;0.90;;;;;;;;;;6124965;23;20176;-82
2022/03/07 01:57:58;;;;;;;0.83;0.83;;;;;;;;;;6100602;23;20180;-82
2022/03/07 02:00:27;;;;;;;1.10;1.03;;;;;;;;;;6100836;23;20172;-82
2022/03/07 02:02:57;;;;;;;0.80;0.80;;;;;;;;;;6126344;23;20189;-82
2022/03/07 02:05:26;;;;;;;0.80;0.80;;;;;;;;;;6100997;23;20177;-82
2022/03/07 02:07:56;;;;;;;0.83;0.83;;;;;;;;;;6100567;23;20187;-82
2022/03/07 02:10:27;;;;;;;0.90;0.90;;;;;;;;;;6126140;23;20188;-82
2022/03/07 02:12:56;;;;;;;0.80;0.80;;;;;;;;;;6126363;23;20176;-82
2022/03/07 02:15:24;;;;;;;0.90;0.90;;;;;;;;;;6100479;23;20180;-82
2022/03/07 02:17:53;;;;;;;0.80;0.80;;;;;;;;;;6101174;23;20231;-82
2022/03/07 02:20:23;;;;;;;0.90;0.90;;;;;;;;;;6126449;23;20168;-82
2022/03/07 02:22:53;;;;;;;0.80;0.80;;;;;;;;;;6125817;23;20173;-82
2022/03/07 02:25:21;;;;;;;1.13;1.10;;;;;;;;;;6101176;23;20209;-82
2022/03/07 02:27:50;;;;;;;0.90;0.90;;;;;;;;;;6101152;23;20177;-83
2022/03/07 02:30:18;;;;;;;0.90;0.90;;;;;;;;;;6100962;23;20196;-83
2022/03/07 02:32:46;;;;;;;1.20;1.20;;;;;;;;;;6126495;23;20173;-83
2022/03/07 02:35:15;;;;;;;1.20;1.20;;;;;;;;;;6100332;23;20172;-82
2022/03/07 02:37:44;;;;;;;1.07;1.07;;;;;;;;;;6100556;23;20177;-82
2022/03/07 02:40:14;;;;;;;0.90;0.90;;;;;;;;;;6125345;23;20177;-82
2022/03/07 02:43:02;;;;;;;2.50;2.40;;;;;;;;;;6100634;23;20231;-82
2022/03/07 02:45:30;;;;;;;1.87;1.77;;;;;;;;;;6100888;23;20254;-82
2022/03/07 02:47:59;;;;;;;0.77;0.77;;;;;;;;;;6100703;23;20181;-82
2022/03/07 02:50:27;;;;;;;1.00;1.00;;;;;;;;;;6125658;23;20208;-82
2022/03/07 02:52:57;;;;;;;1.00;1.00;;;;;;;;;;6126502;23;20259;-82
2022/03/07 02:55:27;;;;;;;1.80;1.70;;;;;;;;;;6100651;23;20251;-82
2022/03/07 02:57:55;;;;;;;0.90;0.90;;;;;;;;;;6100802;23;20183;-82
2022/03/07 03:00:24;;;;;;;3.57;1.57;;;;;;;;;;6124887;23;20178;-82
2022/03/07 03:02:52;;;;;;;1.20;1.20;;;;;;;;;;6100815;23;20192;-82
2022/03/07 03:05:20;;;;;;;0.87;0.87;;;;;;;;;;6126423;23;20171;-82
2022/03/07 03:07:51;;;;;;;0.83;0.83;;;;;;;;;;6100299;23;20180;-82
2022/03/07 03:10:19;;;;;;;0.90;0.90;;;;;;;;;;6124861;23;20239;-82
2022/03/07 03:12:49;;;;;;;3.50;1.43;;;;;;;;;;6126278;23;20199;-82
2022/03/07 03:15:18;;;;;;;0.93;0.93;;;;;;;;;;6126726;23;20183;-82
2022/03/07 03:17:47;;;;;;;5.23;4.83;;;;;;;;;;6126548;23;20227;-82
2022/03/07 03:20:16;;;;;;;0.90;0.90;;;;;;;;;;6128326;23;20256;-82
2022/03/07 03:22:46;;;;;;;0.97;0.97;;;;;;;;;;6102407;23;20176;-82
2022/03/07 03:25:16;;;;;;;0.80;0.80;;;;;;;;;;6128655;23;20183;-82
2022/03/07 03:27:44;;;;;;;1.63;1.57;;;;;;;;;;6102333;23;20176;-82
2022/03/07 03:30:15;;;;;;;1.83;1.77;;;;;;;;;;6102013;23;20191;-82
2022/03/07 03:32:44;;;;;;;1.03;1.03;;;;;;;;;;6128416;23;20199;-82
2022/03/07 03:35:12;;;;;;;1.07;1.07;;;;;;;;;;6102500;23;20185;-83
2022/03/07 03:37:41;;;;;;;1.17;1.17;;;;;;;;;;6128221;23;20172;-82
2022/03/07 03:40:11;;;;;;;1.67;1.60;;;;;;;;;;6102188;23;20181;-82
2022/03/07 03:42:39;;;;;;;0.90;0.90;;;;;;;;;;6102302;23;20173;-82
2022/03/07 03:45:09;;;;;;;0.83;0.83;;;;;;;;;;6127822;23;20190;-82
2022/03/07 03:47:39;;;;;;;0.80;0.80;;;;;;;;;;6126530;23;20180;-82
2022/03/07 03:50:08;;;;;;;1.13;1.10;;;;;;;;;;6102016;23;20244;-82
2022/03/07 03:52:37;;;;;;;0.83;0.83;;;;;;;;;;6102463;23;20199;-82
2022/03/07 03:55:06;;;;;;;2.67;1.93;;;;;;;;;;6102232;23;20180;-82
2022/03/07 03:57:34;;;;;;;0.90;0.90;;;;;;;;;;6127893;23;20176;-82
2022/03/07 04:00:05;;;;;;;1.00;1.00;;;;;;;;;;6128140;23;20179;-82
2022/03/07 04:02:33;;;;;;;1.27;1.27;;;;;;;;;;6102210;23;20192;-82
2022/03/07 04:05:03;;;;;;;0.90;0.90;;;;;;;;;;6102688;23;20176;-82
2022/03/07 04:07:32;;;;;;;0.80;0.80;;;;;;;;;;6101898;23;20172;-82
2022/03/07 04:10:00;;;;;;;7.23;5.90;;;;;;;;;;6126501;23;20271;-82
2022/03/07 04:12:29;;;;;;;0.80;0.80;;;;;;;;;;6101872;23;20200;-82
2022/03/07 04:14:57;;;;;;;1.50;1.17;;;;;;;;;;6127933;23;20172;-82
2022/03/07 04:17:25;;;;;;;1.00;1.00;;;;;;;;;;6127757;23;20177;-82
2022/03/07 04:19:54;;;;;;;0.80;0.80;;;;;;;;;;6127816;23;20183;-82
2022/03/07 04:22:24;;;;;;;0.90;0.90;;;;;;;;;;6127752;23;20173;-82
2022/03/07 04:24:52;;;;;;;0.90;0.90;;;;;;;;;;6102093;23;20183;-82
2022/03/07 04:27:20;;;;;;;0.90;0.90;;;;;;;;;;6101761;23;20180;-82
2022/03/07 04:29:49;;;;;;;1.00;1.00;;;;;;;;;;6126968;23;20175;-82
2022/03/07 04:32:17;;;;;;;0.90;0.90;;;;;;;;;;6127321;23;20191;-84
2022/03/07 04:34:46;;;;;;;0.90;0.90;;;;;;;;;;6127669;23;20173;-82
2022/03/07 04:37:14;;;;;;;0.90;0.90;;;;;;;;;;6127568;23;20176;-82
2022/03/07 04:39:44;;;;;;;1.17;1.17;;;;;;;;;;6126403;23;20191;-82
2022/03/07 04:42:13;;;;;;;1.87;1.77;;;;;;;;;;6102133;23;20177;-82
2022/03/07 04:44:41;;;;;;;0.90;0.90;;;;;;;;;;6101863;23;20500;-82
2022/03/07 04:47:09;;;;;;;0.90;0.90;;;;;;;;;;6101736;23;20177;-82
2022/03/07 04:49:38;;;;;;;1.00;1.00;;;;;;;;;;6127154;23;20180;-82
2022/03/07 04:52:07;;;;;;;0.90;0.90;;;;;;;;;;6125878;23;20656;-82
2022/03/07 04:54:35;;;;;;;0.90;0.90;;;;;;;;;;6101737;23;20181;-82
2022/03/07 04:57:06;;;;;;;0.90;0.90;;;;;;;;;;6127158;23;20184;-82
2022/03/07 04:59:34;;;;;;;0.90;0.90;;;;;;;;;;6127243;23;20176;-82
2022/03/07 05:02:03;;;;;;;0.80;0.80;;;;;;;;;;6126927;23;20194;-82
2022/03/07 05:04:31;;;;;;;0.97;0.97;;;;;;;;;;6127336;23;20243;-82
2022/03/07 05:07:00;;;;;;;1.73;1.63;;;;;;;;;;6101616;23;20184;-81
2022/03/07 05:09:28;;;;;;;1.00;1.00;;;;;;;;;;6101677;23;20263;-82
2022/03/07 05:11:57;;;;;;;0.90;0.90;;;;;;;;;;6101837;23;20218;-82
2022/03/07 05:14:27;;;;;;;0.90;0.90;;;;;;;;;;6127335;23;20180;-82
2022/03/07 05:16:55;;;;;;;0.90;0.90;;;;;;;;;;6101364;23;20173;-82
2022/03/07 05:19:25;;;;;;;0.80;0.80;;;;;;;;;;6101538;23;20239;-82
2022/03/07 05:21:53;;;;;;;0.90;0.90;;;;;;;;;;6101214;23;20184;-82
2022/03/07 05:24:22;;;;;;;1.00;1.00;;;;;;;;;;6127183;23;20253;-82
2022/03/07 05:26:50;;;;;;;1.43;1.43;;;;;;;;;;6101151;23;20180;-82
2022/03/07 05:29:19;;;;;;;0.90;0.90;;;;;;;;;;6101454;23;20228;-82
2022/03/07 05:31:48;;;;;;;0.90;0.90;;;;;;;;;;6126897;23;20199;-82
2022/03/07 05:34:17;;;;;;;1.23;1.23;;;;;;;;;;6125882;23;20184;-82
2022/03/07 05:36:45;;;;;;;0.90;0.90;;;;;;;;;;6126937;23;20172;-82
2022/03/07 05:39:14;;;;;;;1.43;1.33;;;;;;;;;;6127086;23;20181;-82
2022/03/07 05:41:42;;;;;;;1.70;1.13;;;;;;;;;;6126500;23;20164;-82
2022/03/07 05:44:11;;;;;;;0.80;0.80;;;;;;;;;;6101695;23;20176;-82
2022/03/07 05:46:39;;;;;;;12.90;2.57;;;;;;;;;;6101020;23;20181;-82
2022/03/07 05:49:09;;;;;;;1.10;1.10;;;;;;;;;;6100839;23;20180;-82
2022/03/07 05:51:38;;;;;;;0.90;0.90;;;;;;;;;;6100815;23;20263;-82
2022/03/07 05:54:06;;;;;;;1.47;1.47;;;;;;;;;;6101460;23;20184;-82
2022/03/07 05:56:34;;;;;;;0.90;0.90;;;;;;;;;;6101156;23;20184;-82
2022/03/07 05:59:03;;;;;;;0.90;0.90;;;;;;;;;;6127350;23;20235;-82
2022/03/07 06:01:31;;;;;;;1.03;1.03;;;;;;;;;;6101476;23;20172;-82
2022/03/07 06:04:00;;;;;;;2.00;2.00;;;;;;;;;;6101348;23;20196;-82
2022/03/07 06:06:30;;;;;;;0.90;0.90;;;;;;;;;;6125871;23;20199;-82
2022/03/07 06:08:58;;;;;;;1.00;1.00;;;;;;;;;;6125681;23;20200;-82
2022/03/07 06:11:26;;;;;;;0.90;0.90;;;;;;;;;;6126490;23;20640;-82
2022/03/07 06:13:55;;;;;;;1.10;1.10;;;;;;;;;;6100696;23;20197;-82
2022/03/07 06:16:24;;;;;;;0.90;0.90;;;;;;;;;;6126524;23;20183;-82
2022/03/07 06:18:52;;;;;;;1.00;1.00;;;;;;;;;;6101243;23;20181;-82
2022/03/07 06:21:20;;;;;;;2.07;2.07;;;;;;;;;;6100584;23;20191;-81
2022/03/07 06:23:50;;;;;;;1.13;1.13;;;;;;;;;;6126965;23;20169;-82
2022/03/07 06:26:18;;;;;;;3.63;2.03;;;;;;;;;;6126377;23;20243;-82
2022/03/07 06:28:47;;;;;;;0.90;0.90;;;;;;;;;;6100679;23;20226;-82
2022/03/07 06:31:15;;;;;;;0.80;0.80;;;;;;;;;;6125160;23;20180;-82
2022/03/07 06:33:44;;;;;;;0.90;0.90;;;;;;;;;;6100762;23;20196;-82
2022/03/07 06:36:12;;;;;;;1.10;1.10;;;;;;;;;;6100741;23;20191;-82
2022/03/07 06:38:41;;;;;;;0.90;0.90;;;;;;;;;;6101354;23;20187;-82
2022/03/07 06:41:10;;;;;;;1.90;1.80;;;;;;;;;;6100793;23;20180;-82
2022/03/07 06:43:39;;;;;;;1.00;1.00;;;;;;;;;;6126177;23;20168;-82
2022/03/07 06:46:07;;;;;;;1.10;1.10;;;;;;;;;;6126204;23;20207;-82
2022/03/07 06:48:36;;;;;;;0.80;0.80;;;;;;;;;;6126461;23;20172;-82
2022/03/07 06:51:04;;;;;;;0.90;0.90;;;;;;;;;;6126255;23;20212;-82
2022/03/07 06:53:34;;;;;;;0.90;0.90;;;;;;;;;;6126222;23;20188;-82
2022/03/07 06:56:03;;;;;;;2.30;2.10;;;;;;;;;;6100998;23;20176;-82
2022/03/07 06:58:33;;;;;;;1.07;1.07;;;;;;;;;;6126297;23;20177;-83
2022/03/07 07:01:01;;;;;;;0.80;0.80;;;;;;;;;;6100769;23;20179;-83
2022/03/07 07:03:30;;;;;;;0.90;0.90;;;;;;;;;;6124920;23;20196;-83
2022/03/07 07:05:59;;;;;;;0.80;0.80;;;;;;;;;;6126466;23;20180;-82
2022/03/07 07:08:27;;;;;;;1.00;1.00;;;;;;;;;;6101594;23;20180;-83
2022/03/07 07:10:56;;;;;;;1.00;1.00;;;;;;;;;;6126199;23;20188;-84
2022/03/07 07:13:24;;;;;;;0.90;0.90;;;;;;;;;;6100062;23;20234;-83
2022/03/07 07:15:55;;;;;;;1.87;1.77;;;;;;;;;;6100674;23;20173;-83
2022/03/07 07:18:25;;;;;;;1.93;1.93;;;;;;;;;;6126391;23;20172;-83
2022/03/07 07:20:56;;;;;;;0.87;0.87;;;;;;;;;;6100295;23;20188;-83
2022/03/07 07:23:25;;;;;;;1.00;1.00;;;;;;;;;;6100746;23;20180;-83
2022/03/07 07:25:54;;;;;;;1.83;1.60;;;;;;;;;;6100831;23;20181;-83
2022/03/07 07:28:23;;;;;;;0.97;0.97;;;;;;;;;;6100736;23;20204;-83
2022/03/07 07:30:52;;;;;;;2.20;2.10;;;;;;;;;;6100520;23;20187;-83
2022/03/07 07:33:22;;;;;;;2.50;1.63;;;;;;;;;;6100320;23;20247;-83
2022/03/07 07:35:51;;;;;;;1.30;1.30;;;;;;;;;;6100293;23;20267;-83
2022/03/07 07:38:21;;;;;;;1.83;1.73;;;;;;;;;;6100559;23;20180;-83
2022/03/07 07:40:50;;;;;;;1.07;1.07;;;;;;;;;;6100776;23;20623;-83
2022/03/07 07:43:19;;;;;;;1.30;1.30;;;;;;;;;;6101138;23;20177;-83
2022/03/07 07:45:52;;;;;;;2.37;2.27;;;;;;;;;;6101650;23;20184;-83
2022/03/07 07:48:28;;;;;;;2.17;2.07;;;;;;;;;;6100586;23;20181;-83
2022/03/07 07:51:05;;;;;;;1.23;1.23;;;;;;;;;;6100151;23;20212;-83
2022/03/07 07:53:52;;;;;;;1.50;1.40;;;;;;;;;;6100401;23;20200;-83
2022/03/07 07:56:33;;;;;;;0.97;0.97;;;;;;;;;;6100946;23;20176;-83
2022/03/07 07:59:20;;;;;;;5.70;5.10;;;;;;;;;;6100383;23;20185;-84
2022/03/07 08:01:57;;;;;;;5.97;3.00;;;;;;;;;;6124563;23;20231;-83
2022/03/07 08:04:38;;;;;;;5.40;4.57;;;;;;;;;;6099912;23;20183;-82
2022/03/07 08:07:16;;;;;;;6.27;4.10;;;;;;;;;;6100687;23;20180;-83
2022/03/07 08:09:57;;;;;;;1.93;1.80;;;;;;;;;;6098911;23;20176;-84
2022/03/07 08:13:00;;;;;;;4.83;3.90;;;;;;;;;;6097619;23;20176;-84
2022/03/07 08:15:49;;;;;;;6.03;3.57;;;;;;;;;;6100659;23;20180;-83
2022/03/07 08:18:40;;;;;;;6.57;5.07;;;;;;;;;;6096479;23;20177;-83
2022/03/07 08:21:20;;;;;;;7.03;5.73;;;;;;;;;;6100543;23;20203;-83
2022/03/07 08:24:40;;;;;;;3.83;3.50;;;;;;;;;;6059654;23;20184;-83
2022/03/07 08:27:48;;;;;;;4.03;3.00;;;;;;;;;;6125204;23;20207;-83
2022/03/07 08:34:00;;;;;;;7.10;4.77;;;;;;;;;;6094697;23;20437;-85
2022/03/07 08:40:31;;;;;;;5.47;4.43;;;;;;;;;;6101154;23;20207;-84
2022/03/07 08:43:28;;;;;;;;;;;;;;;;;;;;;
2022/03/07 08:50:10;;;;;;;4.23;3.60;;;;;;;;;;5899857;24;20177;-84
2022/03/07 08:52:52;;;;;;;5.57;4.30;;;;;;;;;;5947310;24;20183;-83
2022/03/07 08:55:47;;;;;;;6.57;4.13;;;;;;;;;;5957464;24;20271;-84
2022/03/07 09:02:03;;;;;;;3.93;3.23;;;;;;;;;;5922930;24;20189;-84
2022/03/07 09:05:05;;;;;;;5.03;4.50;;;;;;;;;;5902076;24;20268;-84
2022/03/07 09:07:54;;;;;;;7.07;5.27;;;;;;;;;;6006953;23;20259;-84
2022/03/07 09:11:25;;;;;;;5.53;4.40;;;;;;;;;;6077005;23;20183;-84
2022/03/07 09:14:23;;;;;;;5.33;4.87;;;;;;;;;;6094335;23;20197;-85
2022/03/07 09:17:23;;;;;;;8.23;6.40;;;;;;;;;;6095365;23;20188;-84
2022/03/07 09:24:36;;;;;;;4.80;3.93;;;;;;;;;;5979648;24;20206;-84
2022/03/07 12:01:58;;;;;;;2.63;2.43;;;;;;;;;;5924811;24;20186;-87
2022/03/07 12:05:14;;;;;;;5.17;4.73;;;;;;;;;;5892062;24;20194;-82
2022/03/07 14:55:49;;;;;;;;;;;;;;;;;;;;;
2022/03/07 15:06:38;;;;;;;6.03;4.77;;;;;;;;;;5883284;24;20216;-88
2022/03/07 15:09:52;;;;;;;6.97;6.27;;;;;;;;;;5904254;24;20241;-88
2022/03/07 15:13:22;;;;;;;6.03;3.23;;;;;;;;;;5945752;24;20203;-88
2022/03/07 15:16:16;;;;;;;3.87;3.47;;;;;;;;;;5925827;24;20194;-87
2022/03/07 15:19:11;;;;;;;7.67;5.07;;;;;;;;;;5916215;23;20186;-87
2022/03/07 15:22:05;;;;;;;4.73;4.20;;;;;;;;;;6067911;23;20182;-87
2022/03/07 15:24:56;;;;;;;7.20;6.33;;;;;;;;;;6102018;23;20236;-87
2022/03/07 15:27:30;;;;;;;5.37;4.87;;;;;;;;;;6074163;23;20206;-87
2022/03/07 15:30:13;;;;;;;3.77;3.47;;;;;;;;;;6073012;23;20181;-87
2022/03/07 15:32:46;;;;;;;3.40;2.77;;;;;;;;;;6097437;23;20275;-88
2022/03/07 15:35:36;;;;;;;1.70;1.60;;;;;;;;;;6073181;23;20229;-88
2022/03/07 15:41:31;;;;;;;5.80;4.77;;;;;;;;;;6069913;23;20237;-83
2022/03/07 15:44:05;;;;;;;4.63;4.20;;;;;;;;;;6073115;23;20178;-83
2022/03/07 15:46:38;;;;;;;3.77;3.43;;;;;;;;;;6073056;23;20183;-84
2022/03/07 15:49:11;;;;;;;3.87;3.43;;;;;;;;;;6072295;23;20179;-83
2022/03/07 15:51:44;;;;;;;4.20;3.80;;;;;;;;;;6072261;23;20206;-86
2022/03/07 15:54:16;;;;;;;5.43;3.07;;;;;;;;;;6072394;23;20263;-86
2022/03/07 15:56:50;;;;;;;5.17;4.67;;;;;;;;;;6072336;23;20178;-86
2022/03/07 15:59:24;;;;;;;3.10;2.80;;;;;;;;;;6072976;23;20182;-85
2022/03/07 16:01:58;;;;;;;4.37;3.77;;;;;;;;;;6072854;23;20257;-87
2022/03/07 16:04:28;;;;;;;3.20;3.00;;;;;;;;;;6100247;23;20185;-85
2022/03/07 16:07:07;;;;;;;3.10;2.67;;;;;;;;;;6072892;23;20218;-86
2022/03/07 16:09:40;;;;;;;4.27;3.30;;;;;;;;;;6072755;23;20181;-84
2022/03/07 16:12:09;;;;;;;3.27;3.00;;;;;;;;;;6069506;23;20182;-85
2022/03/07 16:14:50;;;;;;;3.60;3.30;;;;;;;;;;6072368;23;20198;-85
2022/03/07 16:17:26;;;;;;;3.43;3.13;;;;;;;;;;6095369;23;20242;-83
2022/03/07 16:19:55;;;;;;;2.93;2.50;;;;;;;;;;6095901;23;20207;-82
2022/03/07 16:22:25;;;;;;;2.70;2.20;;;;;;;;;;6096616;23;20180;-82
2022/03/07 16:24:57;;;;;;;3.90;3.20;;;;;;;;;;6096844;23;20210;-82
2022/03/07 16:27:54;;;;;;;2.73;2.13;;;;;;;;;;6071983;23;20182;-85
2022/03/07 16:30:43;;;;;;;2.50;2.30;;;;;;;;;;6072663;23;20217;-85
2022/03/07 16:36:55;;;;;;;4.17;3.77;;;;;;;;;;6033602;23;20182;-85
2022/03/07 16:39:34;;;;;;;4.27;3.47;;;;;;;;;;6038248;23;20183;-84
2022/03/07 16:42:05;;;;;;;2.27;2.07;;;;;;;;;;6072720;23;20217;-84
2022/03/07 16:44:33;;;;;;;3.23;2.93;;;;;;;;;;6097613;23;20185;-85
2022/03/07 16:47:02;;;;;;;3.07;2.77;;;;;;;;;;6097104;23;20173;-85
2022/03/07 16:49:31;;;;;;;2.97;2.43;;;;;;;;;;6072425;23;20184;-84
2022/03/07 16:52:00;;;;;;;7.23;2.00;;;;;;;;;;6071697;23;20188;-85
2022/03/07 16:54:28;;;;;;;6.87;3.77;;;;;;;;;;6072097;23;20203;-85
2022/03/07 16:56:57;;;;;;;2.60;2.17;;;;;;;;;;6072015;23;20176;-84
2022/03/07 16:59:27;;;;;;;5.27;3.47;;;;;;;;;;6072206;23;20182;-85
2022/03/07 17:01:55;;;;;;;5.60;3.53;;;;;;;;;;6071567;23;20269;-84
2022/03/07 17:04:24;;;;;;;6.90;4.03;;;;;;;;;;6071755;23;20201;-85
2022/03/07 17:06:52;;;;;;;3.33;3.13;;;;;;;;;;6097059;23;20213;-84
2022/03/07 17:09:21;;;;;;;6.10;4.60;;;;;;;;;;6071713;23;20182;-85
2022/03/07 17:11:51;;;;;;;3.60;3.00;;;;;;;;;;6071860;23;20286;-83
2022/03/07 17:14:19;;;;;;;5.00;4.00;;;;;;;;;;6072278;23;20187;-84
2022/03/07 17:16:49;;;;;;;4.90;4.40;;;;;;;;;;6072067;23;20283;-84
2022/03/07 17:19:17;;;;;;;5.03;4.53;;;;;;;;;;6072523;23;20185;-83
2022/03/07 17:21:46;;;;;;;1.97;1.87;;;;;;;;;;6071222;23;20181;-81
2022/03/07 17:24:14;;;;;;;4.03;3.63;;;;;;;;;;6071564;23;20181;-80
2022/03/07 17:26:43;;;;;;;3.07;2.80;;;;;;;;;;6071280;23;20177;-80
2022/03/07 17:29:13;;;;;;;2.37;2.13;;;;;;;;;;6072004;23;20177;-80
2022/03/07 17:31:41;;;;;;;6.27;4.20;;;;;;;;;;6071661;23;20182;-80
2022/03/07 17:34:11;;;;;;;4.70;4.00;;;;;;;;;;6072391;23;20271;-80
2022/03/07 17:36:39;;;;;;;5.23;4.43;;;;;;;;;;6097366;23;20197;-80
2022/03/07 17:39:08;;;;;;;3.63;2.83;;;;;;;;;;6072686;23;20188;-81
2022/03/07 17:41:36;;;;;;;3.30;3.10;;;;;;;;;;6097839;23;20185;-81
2022/03/07 17:44:05;;;;;;;4.33;3.67;;;;;;;;;;6072498;23;20181;-80
2022/03/07 17:46:33;;;;;;;4.83;4.43;;;;;;;;;;6071917;23;20200;-81
2022/03/07 17:49:01;;;;;;;3.93;3.47;;;;;;;;;;6097654;23;20182;-80
2022/03/07 17:51:31;;;;;;;5.13;4.47;;;;;;;;;;6097525;23;20185;-80
2022/03/07 17:54:01;;;;;;;5.20;4.77;;;;;;;;;;6071719;23;20176;-80
2022/03/07 17:56:29;;;;;;;3.77;3.47;;;;;;;;;;6097229;23;20193;-80
2022/03/07 17:58:58;;;;;;;4.30;3.90;;;;;;;;;;6071783;23;20185;-80
2022/03/07 18:01:27;;;;;;;4.47;3.47;;;;;;;;;;6071981;23;20204;-81
2022/03/07 18:03:55;;;;;;;11.00;3.53;;;;;;;;;;6072016;23;20225;-80
2022/03/07 18:06:24;;;;;;;3.80;3.30;;;;;;;;;;6071899;23;20179;-81
2022/03/07 18:08:54;;;;;;;4.50;4.10;;;;;;;;;;6097399;23;20207;-80
2022/03/07 18:11:23;;;;;;;3.47;2.53;;;;;;;;;;6071765;23;20229;-81
2022/03/07 18:13:51;;;;;;;4.33;3.97;;;;;;;;;;6072237;23;20197;-80
2022/03/07 18:16:20;;;;;;;6.00;2.70;;;;;;;;;;6072230;23;20374;-80
2022/03/07 18:18:48;;;;;;;3.20;3.00;;;;;;;;;;6071949;23;20177;-81
2022/03/07 18:21:17;;;;;;;6.07;4.83;;;;;;;;;;6097371;23;20173;-80
2022/03/07 18:23:45;;;;;;;4.00;2.90;;;;;;;;;;6072247;23;20177;-81
2022/03/07 18:26:15;;;;;;;5.70;4.70;;;;;;;;;;6072000;23;20216;-80
2022/03/07 18:28:43;;;;;;;7.87;5.77;;;;;;;;;;6097344;23;20181;-80
2022/03/07 18:31:11;;;;;;;3.03;2.50;;;;;;;;;;6096850;23;20196;-80
2022/03/07 18:33:40;;;;;;;3.47;3.20;;;;;;;;;;6071583;23;20177;-80
2022/03/07 18:36:08;;;;;;;4.70;4.27;;;;;;;;;;6097143;23;20532;-80
2022/03/07 18:38:37;;;;;;;5.20;4.70;;;;;;;;;;6072163;23;20180;-80
2022/03/07 18:41:05;;;;;;;6.40;5.03;;;;;;;;;;6071922;23;20187;-81
2022/03/07 18:43:35;;;;;;;6.60;6.00;;;;;;;;;;6072072;23;20177;-81
2022/03/07 18:46:03;;;;;;;10.33;6.70;;;;;;;;;;6097267;23;20173;-80
2022/03/07 18:48:32;;;;;;;4.37;3.97;;;;;;;;;;6071786;23;20177;-80
2022/03/07 18:51:01;;;;;;;2.53;2.37;;;;;;;;;;6096787;23;20181;-80
2022/03/07 18:53:29;;;;;;;9.47;4.70;;;;;;;;;;6071317;23;20214;-80
2022/03/07 18:55:58;;;;;;;3.37;3.07;;;;;;;;;;6071588;23;20201;-80
2022/03/07 18:58:28;;;;;;;3.17;2.63;;;;;;;;;;6071942;23;20177;-81
2022/03/07 19:00:58;;;;;;;3.23;2.90;;;;;;;;;;6072157;23;20264;-81
2022/03/07 19:03:27;;;;;;;2.27;2.07;;;;;;;;;;6096874;23;20205;-81
2022/03/07 19:05:55;;;;;;;6.13;4.73;;;;;;;;;;6096879;23;20252;-80
2022/03/07 19:08:24;;;;;;;3.00;2.70;;;;;;;;;;6095746;23;20237;-80
2022/03/07 19:10:53;;;;;;;2.57;2.33;;;;;;;;;;6096877;23;20248;-80
2022/03/07 19:13:22;;;;;;;3.50;3.17;;;;;;;;;;6071832;23;20184;-80
2022/03/07 19:15:50;;;;;;;4.20;3.80;;;;;;;;;;6096559;23;20184;-81
2022/03/07 19:18:21;;;;;;;3.50;3.10;;;;;;;;;;6097288;23;20177;-80
2022/03/07 19:20:50;;;;;;;2.90;2.80;;;;;;;;;;6096696;23;20173;-80
2022/03/07 19:23:22;;;;;;;4.30;2.47;;;;;;;;;;6071836;23;20244;-80
2022/03/07 19:25:51;;;;;;;2.67;2.53;;;;;;;;;;6071228;23;20177;-80
2022/03/07 19:28:20;;;;;;;4.60;3.77;;;;;;;;;;6071947;23;20181;-80
2022/03/07 19:30:50;;;;;;;5.90;3.90;;;;;;;;;;6071635;23;20188;-81
2022/03/07 19:33:19;;;;;;;5.60;4.07;;;;;;;;;;6060692;23;20181;-80
2022/03/07 19:35:49;;;;;;;3.93;3.63;;;;;;;;;;6097017;23;20173;-80
2022/03/07 19:38:18;;;;;;;6.60;4.60;;;;;;;;;;6095812;23;20205;-80
2022/03/07 19:40:47;;;;;;;1.53;1.47;;;;;;;;;;6071708;23;20188;-81
2022/03/07 19:43:15;;;;;;;4.00;3.63;;;;;;;;;;6096070;23;20180;-80
2022/03/07 19:45:44;;;;;;;3.33;3.03;;;;;;;;;;6071390;23;20209;-80
2022/03/07 19:48:13;;;;;;;3.20;2.37;;;;;;;;;;6097449;23;20170;-80
2022/03/07 19:50:41;;;;;;;4.33;4.00;;;;;;;;;;6096869;23;20180;-80
2022/03/07 19:53:12;;;;;;;2.17;2.07;;;;;;;;;;6071609;23;20419;-80
2022/03/07 19:55:41;;;;;;;4.83;4.43;;;;;;;;;;6071789;23;20177;-80
2022/03/07 19:58:09;;;;;;;3.43;2.23;;;;;;;;;;6095710;23;20276;-80
2022/03/07 20:00:38;;;;;;;4.03;2.50;;;;;;;;;;6071338;23;20174;-80
2022/03/07 20:03:06;;;;;;;2.60;2.13;;;;;;;;;;6098861;23;20196;-80
2022/03/07 20:05:35;;;;;;;3.00;2.70;;;;;;;;;;6099171;23;20174;-80
2022/03/07 20:08:03;;;;;;;2.50;2.30;;;;;;;;;;6097170;23;20212;-81
2022/03/07 20:10:33;;;;;;;2.20;2.10;;;;;;;;;;6073812;23;20180;-81
2022/03/07 20:13:06;;;;;;;3.20;2.90;;;;;;;;;;6098736;23;20173;-80
2022/03/07 20:15:34;;;;;;;2.50;2.30;;;;;;;;;;6073556;23;20173;-80
2022/03/07 20:18:03;;;;;;;2.57;2.37;;;;;;;;;;6098248;23;20231;-80
2022/03/07 20:20:31;;;;;;;3.50;2.63;;;;;;;;;;6073080;23;20188;-80
2022/03/07 20:23:00;;;;;;;4.13;3.67;;;;;;;;;;6072894;23;20203;-80
2022/03/07 20:25:29;;;;;;;5.10;3.03;;;;;;;;;;6097486;23;20184;-80
2022/03/07 20:27:59;;;;;;;4.10;3.73;;;;;;;;;;6098229;23;20173;-80
2022/03/07 20:30:27;;;;;;;3.93;3.23;;;;;;;;;;6097428;23;20181;-80
2022/03/07 20:32:56;;;;;;;3.53;3.23;;;;;;;;;;6073203;23;20176;-80
2022/03/07 20:35:24;;;;;;;3.43;3.13;;;;;;;;;;6073492;23;20177;-80
2022/03/07 20:37:53;;;;;;;3.20;2.90;;;;;;;;;;6096736;23;20197;-80
2022/03/07 20:40:21;;;;;;;5.23;3.50;;;;;;;;;;6072842;23;20181;-80
2022/03/07 20:42:49;;;;;;;4.83;3.13;;;;;;;;;;6072770;23;20173;-80
2022/03/07 20:45:19;;;;;;;2.50;2.30;;;;;;;;;;6073141;23;20181;-80
2022/03/07 20:47:48;;;;;;;2.97;2.60;;;;;;;;;;6098342;23;20259;-80
2022/03/07 20:50:16;;;;;;;3.70;3.30;;;;;;;;;;6098906;23;20173;-80
2022/03/07 20:52:45;;;;;;;5.83;4.90;;;;;;;;;;6097988;23;20184;-80
2022/03/07 20:55:14;;;;;;;4.40;3.60;;;;;;;;;;6097990;23;20244;-80
2022/03/07 20:57:43;;;;;;;5.60;4.37;;;;;;;;;;6098429;23;20205;-80
2022/03/07 21:00:14;;;;;;;4.63;3.17;;;;;;;;;;6073159;23;20173;-80
2022/03/07 21:02:43;;;;;;;5.20;3.93;;;;;;;;;;6072820;23;20197;-80
2022/03/07 21:05:12;;;;;;;3.87;3.20;;;;;;;;;;6098211;23;20173;-80
2022/03/07 21:07:40;;;;;;;4.07;3.67;;;;;;;;;;6072139;23;20296;-80
2022/03/07 21:10:09;;;;;;;7.87;5.57;;;;;;;;;;6098571;23;20199;-80